sensor_id;sensor_type;location;lat;lon;timestamp;P1;durP1;ratioP1;P2;durP2;ratioP2
21354;SDS011;10835;50.148;19.760;2023-11-22T00:01:05;9.20;;;4.55;;
21354;SDS011;10835;50.148;19.760;2023-11-22T00:03:35;8.65;;;4.38;;
21354;SDS011;10835;50.148;19.760;2023-11-22T00:06:04;7.78;;;4.03;;
21354;SDS011;10835;50.148;19.760;2023-11-22T00:08:35;4.50;;;3.08;;
21354;SDS011;10835;50.148;19.760;2023-11-22T00:11:03;10.25;;;4.82;;
21354;SDS011;10835;50.148;19.760;2023-11-22T00:13:32;10.57;;;4.47;;
21354;SDS011;10835;50.148;19.760;2023-11-22T00:16:00;6.65;;;3.03;;
21354;SDS011;10835;50.148;19.760;2023-11-22T00:18:30;7.78;;;4.40;;
21354;SDS011;10835;50.148;19.760;2023-11-22T00:20:58;7.68;;;4.65;;
21354;SDS011;10835;50.148;19.760;2023-11-22T00:23:27;7.60;;;4.35;;
21354;SDS011;10835;50.148;19.760;2023-11-22T00:25:58;4.68;;;3.47;;
21354;SDS011;10835;50.148;19.760;2023-11-22T00:28:26;7.82;;;4.03;;
21354;SDS011;10835;50.148;19.760;2023-11-22T00:30:55;7.03;;;3.58;;
21354;SDS011;10835;50.148;19.760;2023-11-22T00:33:25;7.15;;;3.92;;
21354;SDS011;10835;50.148;19.760;2023-11-22T00:35:53;5.97;;;3.80;;
21354;SDS011;10835;50.148;19.760;2023-11-22T00:38:23;6.15;;;4.00;;
21354;SDS011;10835;50.148;19.760;2023-11-22T00:40:52;6.15;;;3.75;;
21354;SDS011;10835;50.148;19.760;2023-11-22T00:43:22;6.45;;;3.28;;
21354;SDS011;10835;50.148;19.760;2023-11-22T00:45:52;8.70;;;4.70;;
21354;SDS011;10835;50.148;19.760;2023-11-22T00:48:20;4.70;;;3.22;;
21354;SDS011;10835;50.148;19.760;2023-11-22T00:50:49;8.23;;;4.32;;
21354;SDS011;10835;50.148;19.760;2023-11-22T00:53:18;7.65;;;4.50;;
21354;SDS011;10835;50.148;19.760;2023-11-22T00:55:46;8.05;;;4.28;;
21354;SDS011;10835;50.148;19.760;2023-11-22T00:58:15;8.80;;;4.53;;
21354;SDS011;10835;50.148;19.760;2023-11-22T01:00:45;10.18;;;4.30;;
21354;SDS011;10835;50.148;19.760;2023-11-22T01:03:14;9.43;;;4.55;;
21354;SDS011;10835;50.148;19.760;2023-11-22T01:05:43;7.03;;;4.90;;
21354;SDS011;10835;50.148;19.760;2023-11-22T01:08:13;10.68;;;4.90;;
21354;SDS011;10835;50.148;19.760;2023-11-22T01:10:41;7.57;;;4.70;;
21354;SDS011;10835;50.148;19.760;2023-11-22T01:13:10;8.60;;;4.47;;
21354;SDS011;10835;50.148;19.760;2023-11-22T01:15:38;6.28;;;4.10;;
21354;SDS011;10835;50.148;19.760;2023-11-22T01:18:08;11.40;;;5.60;;
21354;SDS011;10835;50.148;19.760;2023-11-22T01:20:37;9.77;;;4.47;;
21354;SDS011;10835;50.148;19.760;2023-11-22T01:23:05;12.05;;;5.68;;
21354;SDS011;10835;50.148;19.760;2023-11-22T01:25:34;10.55;;;5.28;;
21354;SDS011;10835;50.148;19.760;2023-11-22T01:28:03;9.98;;;4.85;;
21354;SDS011;10835;50.148;19.760;2023-11-22T01:30:33;8.98;;;4.35;;
21354;SDS011;10835;50.148;19.760;2023-11-22T01:33:03;9.93;;;4.45;;
21354;SDS011;10835;50.148;19.760;2023-11-22T01:35:33;9.45;;;4.65;;
21354;SDS011;10835;50.148;19.760;2023-11-22T01:38:03;11.38;;;5.30;;
21354;SDS011;10835;50.148;19.760;2023-11-22T01:40:32;5.07;;;3.50;;
21354;SDS011;10835;50.148;19.760;2023-11-22T01:43:01;8.18;;;4.65;;
21354;SDS011;10835;50.148;19.760;2023-11-22T01:45:30;9.07;;;4.50;;
21354;SDS011;10835;50.148;19.760;2023-11-22T01:47:59;11.50;;;5.57;;
21354;SDS011;10835;50.148;19.760;2023-11-22T01:50:29;8.98;;;5.18;;
21354;SDS011;10835;50.148;19.760;2023-11-22T01:52:59;9.43;;;5.40;;
21354;SDS011;10835;50.148;19.760;2023-11-22T01:55:28;9.40;;;5.95;;
21354;SDS011;10835;50.148;19.760;2023-11-22T01:57:58;9.48;;;5.13;;
21354;SDS011;10835;50.148;19.760;2023-11-22T02:00:28;9.18;;;4.65;;
21354;SDS011;10835;50.148;19.760;2023-11-22T02:03:00;11.70;;;5.47;;
21354;SDS011;10835;50.148;19.760;2023-11-22T02:05:31;10.60;;;5.47;;
21354;SDS011;10835;50.148;19.760;2023-11-22T02:08:01;9.20;;;4.88;;
21354;SDS011;10835;50.148;19.760;2023-11-22T02:10:30;7.97;;;4.40;;
21354;SDS011;10835;50.148;19.760;2023-11-22T02:12:58;10.73;;;5.15;;
21354;SDS011;10835;50.148;19.760;2023-11-22T02:15:31;9.85;;;5.20;;
21354;SDS011;10835;50.148;19.760;2023-11-22T02:18:00;9.48;;;4.45;;
21354;SDS011;10835;50.148;19.760;2023-11-22T02:20:38;8.60;;;4.45;;
21354;SDS011;10835;50.148;19.760;2023-11-22T02:23:09;8.30;;;5.18;;
21354;SDS011;10835;50.148;19.760;2023-11-22T02:25:38;13.00;;;5.53;;
21354;SDS011;10835;50.148;19.760;2023-11-22T02:28:07;8.25;;;5.07;;
21354;SDS011;10835;50.148;19.760;2023-11-22T02:30:36;12.18;;;4.93;;
21354;SDS011;10835;50.148;19.760;2023-11-22T02:33:04;10.95;;;4.97;;
21354;SDS011;10835;50.148;19.760;2023-11-22T02:35:33;9.95;;;4.80;;
21354;SDS011;10835;50.148;19.760;2023-11-22T02:38:02;11.95;;;5.30;;
21354;SDS011;10835;50.148;19.760;2023-11-22T02:40:33;8.82;;;4.90;;
21354;SDS011;10835;50.148;19.760;2023-11-22T02:43:02;11.60;;;5.40;;
21354;SDS011;10835;50.148;19.760;2023-11-22T02:45:36;8.35;;;5.63;;
21354;SDS011;10835;50.148;19.760;2023-11-22T02:48:08;8.70;;;5.20;;
21354;SDS011;10835;50.148;19.760;2023-11-22T02:50:36;9.88;;;5.07;;
21354;SDS011;10835;50.148;19.760;2023-11-22T02:53:06;11.82;;;5.43;;
21354;SDS011;10835;50.148;19.760;2023-11-22T02:55:36;9.68;;;5.20;;
21354;SDS011;10835;50.148;19.760;2023-11-22T02:58:05;14.77;;;5.85;;
21354;SDS011;10835;50.148;19.760;2023-11-22T03:00:34;10.95;;;5.70;;
21354;SDS011;10835;50.148;19.760;2023-11-22T03:03:03;12.07;;;6.10;;
21354;SDS011;10835;50.148;19.760;2023-11-22T03:05:36;9.35;;;5.80;;
21354;SDS011;10835;50.148;19.760;2023-11-22T03:08:05;12.27;;;5.22;;
21354;SDS011;10835;50.148;19.760;2023-11-22T03:10:37;11.10;;;5.40;;
21354;SDS011;10835;50.148;19.760;2023-11-22T03:13:06;12.32;;;5.60;;
21354;SDS011;10835;50.148;19.760;2023-11-22T03:15:35;12.20;;;6.57;;
21354;SDS011;10835;50.148;19.760;2023-11-22T03:18:04;11.70;;;5.72;;
21354;SDS011;10835;50.148;19.760;2023-11-22T03:20:33;17.15;;;7.22;;
21354;SDS011;10835;50.148;19.760;2023-11-22T03:23:04;16.15;;;7.10;;
21354;SDS011;10835;50.148;19.760;2023-11-22T03:25:32;12.88;;;6.10;;
21354;SDS011;10835;50.148;19.760;2023-11-22T03:28:02;15.80;;;7.15;;
21354;SDS011;10835;50.148;19.760;2023-11-22T03:30:32;13.70;;;6.78;;
21354;SDS011;10835;50.148;19.760;2023-11-22T03:33:01;11.73;;;5.60;;
21354;SDS011;10835;50.148;19.760;2023-11-22T03:35:31;12.82;;;6.35;;
21354;SDS011;10835;50.148;19.760;2023-11-22T03:37:59;13.77;;;6.63;;
21354;SDS011;10835;50.148;19.760;2023-11-22T03:40:28;10.65;;;5.28;;
21354;SDS011;10835;50.148;19.760;2023-11-22T03:42:57;16.15;;;6.95;;
21354;SDS011;10835;50.148;19.760;2023-11-22T03:45:26;13.05;;;5.90;;
21354;SDS011;10835;50.148;19.760;2023-11-22T03:47:55;13.02;;;6.57;;
21354;SDS011;10835;50.148;19.760;2023-11-22T03:50:26;13.32;;;5.78;;
21354;SDS011;10835;50.148;19.760;2023-11-22T03:52:54;12.25;;;5.93;;
21354;SDS011;10835;50.148;19.760;2023-11-22T03:55:23;13.32;;;6.07;;
21354;SDS011;10835;50.148;19.760;2023-11-22T03:57:51;14.13;;;6.25;;
21354;SDS011;10835;50.148;19.760;2023-11-22T04:00:20;11.77;;;6.53;;
21354;SDS011;10835;50.148;19.760;2023-11-22T04:02:50;12.60;;;6.18;;
21354;SDS011;10835;50.148;19.760;2023-11-22T04:05:19;13.10;;;6.07;;
21354;SDS011;10835;50.148;19.760;2023-11-22T04:07:47;13.00;;;5.97;;
21354;SDS011;10835;50.148;19.760;2023-11-22T04:10:18;13.30;;;6.28;;
21354;SDS011;10835;50.148;19.760;2023-11-22T04:12:48;12.25;;;6.07;;
21354;SDS011;10835;50.148;19.760;2023-11-22T04:15:17;12.35;;;5.75;;
21354;SDS011;10835;50.148;19.760;2023-11-22T04:17:45;13.38;;;5.43;;
21354;SDS011;10835;50.148;19.760;2023-11-22T04:20:17;13.82;;;6.03;;
21354;SDS011;10835;50.148;19.760;2023-11-22T04:22:46;11.98;;;6.35;;
21354;SDS011;10835;50.148;19.760;2023-11-22T04:25:14;8.48;;;5.18;;
21354;SDS011;10835;50.148;19.760;2023-11-22T04:27:43;11.63;;;5.95;;
21354;SDS011;10835;50.148;19.760;2023-11-22T04:30:12;13.77;;;6.60;;
21354;SDS011;10835;50.148;19.760;2023-11-22T04:32:41;11.77;;;6.55;;
21354;SDS011;10835;50.148;19.760;2023-11-22T04:35:10;14.35;;;6.65;;
21354;SDS011;10835;50.148;19.760;2023-11-22T04:37:41;12.02;;;5.93;;
21354;SDS011;10835;50.148;19.760;2023-11-22T04:40:10;13.48;;;6.60;;
21354;SDS011;10835;50.148;19.760;2023-11-22T04:42:41;16.20;;;6.18;;
21354;SDS011;10835;50.148;19.760;2023-11-22T04:45:09;15.60;;;7.15;;
21354;SDS011;10835;50.148;19.760;2023-11-22T04:47:38;11.57;;;5.93;;
21354;SDS011;10835;50.148;19.760;2023-11-22T04:50:07;12.20;;;6.25;;
21354;SDS011;10835;50.148;19.760;2023-11-22T04:52:37;14.80;;;7.20;;
21354;SDS011;10835;50.148;19.760;2023-11-22T04:55:08;11.93;;;5.40;;
21354;SDS011;10835;50.148;19.760;2023-11-22T04:57:37;11.68;;;6.32;;
21354;SDS011;10835;50.148;19.760;2023-11-22T05:00:07;13.88;;;5.65;;
21354;SDS011;10835;50.148;19.760;2023-11-22T05:02:36;13.25;;;6.15;;
21354;SDS011;10835;50.148;19.760;2023-11-22T05:05:06;15.00;;;5.75;;
21354;SDS011;10835;50.148;19.760;2023-11-22T05:07:37;14.52;;;5.97;;
21354;SDS011;10835;50.148;19.760;2023-11-22T05:10:06;15.07;;;5.35;;
21354;SDS011;10835;50.148;19.760;2023-11-22T05:12:37;13.30;;;6.25;;
21354;SDS011;10835;50.148;19.760;2023-11-22T05:15:06;13.35;;;5.43;;
21354;SDS011;10835;50.148;19.760;2023-11-22T05:17:34;9.45;;;5.50;;
21354;SDS011;10835;50.148;19.760;2023-11-22T05:20:04;9.43;;;5.47;;
21354;SDS011;10835;50.148;19.760;2023-11-22T05:22:36;10.15;;;5.18;;
21354;SDS011;10835;50.148;19.760;2023-11-22T05:25:05;13.73;;;6.13;;
21354;SDS011;10835;50.148;19.760;2023-11-22T05:27:35;15.07;;;5.22;;
21354;SDS011;10835;50.148;19.760;2023-11-22T05:30:04;9.95;;;5.28;;
21354;SDS011;10835;50.148;19.760;2023-11-22T05:32:34;9.13;;;5.22;;
21354;SDS011;10835;50.148;19.760;2023-11-22T05:35:03;11.40;;;5.43;;
21354;SDS011;10835;50.148;19.760;2023-11-22T05:37:33;12.15;;;5.97;;
21354;SDS011;10835;50.148;19.760;2023-11-22T05:40:01;12.02;;;5.50;;
21354;SDS011;10835;50.148;19.760;2023-11-22T05:42:31;10.15;;;4.68;;
21354;SDS011;10835;50.148;19.760;2023-11-22T05:45:03;9.70;;;4.82;;
21354;SDS011;10835;50.148;19.760;2023-11-22T05:47:32;8.15;;;4.25;;
21354;SDS011;10835;50.148;19.760;2023-11-22T05:50:01;16.85;;;5.38;;
21354;SDS011;10835;50.148;19.760;2023-11-22T05:52:30;10.35;;;5.32;;
21354;SDS011;10835;50.148;19.760;2023-11-22T05:54:58;16.40;;;5.95;;
21354;SDS011;10835;50.148;19.760;2023-11-22T05:57:30;9.65;;;5.00;;
21354;SDS011;10835;50.148;19.760;2023-11-22T05:59:58;12.98;;;5.72;;
21354;SDS011;10835;50.148;19.760;2023-11-22T06:02:31;10.98;;;5.03;;
21354;SDS011;10835;50.148;19.760;2023-11-22T06:05:00;11.10;;;4.80;;
21354;SDS011;10835;50.148;19.760;2023-11-22T06:07:29;9.35;;;4.25;;
21354;SDS011;10835;50.148;19.760;2023-11-22T06:09:58;12.57;;;5.32;;
21354;SDS011;10835;50.148;19.760;2023-11-22T06:12:29;9.65;;;4.50;;
21354;SDS011;10835;50.148;19.760;2023-11-22T06:14:58;8.45;;;4.78;;
21354;SDS011;10835;50.148;19.760;2023-11-22T06:17:27;9.10;;;4.68;;
21354;SDS011;10835;50.148;19.760;2023-11-22T06:19:58;14.57;;;7.38;;
21354;SDS011;10835;50.148;19.760;2023-11-22T06:22:26;16.33;;;7.30;;
21354;SDS011;10835;50.148;19.760;2023-11-22T06:24:55;16.08;;;7.05;;
21354;SDS011;10835;50.148;19.760;2023-11-22T06:27:23;15.63;;;8.50;;
21354;SDS011;10835;50.148;19.760;2023-11-22T06:29:52;9.88;;;5.53;;
21354;SDS011;10835;50.148;19.760;2023-11-22T06:32:20;12.32;;;6.35;;
21354;SDS011;10835;50.148;19.760;2023-11-22T06:34:49;13.93;;;7.28;;
21354;SDS011;10835;50.148;19.760;2023-11-22T06:37:19;13.75;;;6.57;;
21354;SDS011;10835;50.148;19.760;2023-11-22T06:39:48;12.52;;;5.57;;
21354;SDS011;10835;50.148;19.760;2023-11-22T06:42:17;17.05;;;6.90;;
21354;SDS011;10835;50.148;19.760;2023-11-22T06:44:47;10.50;;;5.50;;
21354;SDS011;10835;50.148;19.760;2023-11-22T06:47:16;15.27;;;6.15;;
21354;SDS011;10835;50.148;19.760;2023-11-22T06:49:45;14.45;;;5.55;;
21354;SDS011;10835;50.148;19.760;2023-11-22T06:52:14;11.55;;;5.07;;
21354;SDS011;10835;50.148;19.760;2023-11-22T06:54:45;12.07;;;6.38;;
21354;SDS011;10835;50.148;19.760;2023-11-22T06:57:13;9.90;;;5.07;;
21354;SDS011;10835;50.148;19.760;2023-11-22T06:59:42;8.30;;;4.30;;
21354;SDS011;10835;50.148;19.760;2023-11-22T07:02:10;15.27;;;5.50;;
21354;SDS011;10835;50.148;19.760;2023-11-22T07:04:41;9.90;;;5.53;;
21354;SDS011;10835;50.148;19.760;2023-11-22T07:07:09;6.95;;;3.58;;
21354;SDS011;10835;50.148;19.760;2023-11-22T07:09:41;8.23;;;4.45;;
21354;SDS011;10835;50.148;19.760;2023-11-22T07:12:12;6.53;;;4.15;;
21354;SDS011;10835;50.148;19.760;2023-11-22T07:14:40;7.60;;;4.30;;
21354;SDS011;10835;50.148;19.760;2023-11-22T07:17:10;7.78;;;4.55;;
21354;SDS011;10835;50.148;19.760;2023-11-22T07:19:39;6.68;;;4.38;;
21354;SDS011;10835;50.148;19.760;2023-11-22T07:22:13;10.13;;;4.60;;
21354;SDS011;10835;50.148;19.760;2023-11-22T07:24:44;12.10;;;5.47;;
21354;SDS011;10835;50.148;19.760;2023-11-22T07:27:15;8.63;;;4.45;;
21354;SDS011;10835;50.148;19.760;2023-11-22T07:29:44;10.85;;;4.25;;
21354;SDS011;10835;50.148;19.760;2023-11-22T07:32:13;8.88;;;4.55;;
21354;SDS011;10835;50.148;19.760;2023-11-22T07:34:42;6.78;;;3.78;;
21354;SDS011;10835;50.148;19.760;2023-11-22T07:37:10;8.52;;;4.53;;
21354;SDS011;10835;50.148;19.760;2023-11-22T07:39:39;9.68;;;4.15;;
21354;SDS011;10835;50.148;19.760;2023-11-22T07:42:09;13.35;;;5.95;;
21354;SDS011;10835;50.148;19.760;2023-11-22T07:44:39;9.85;;;4.97;;
21354;SDS011;10835;50.148;19.760;2023-11-22T07:47:09;12.20;;;4.68;;
21354;SDS011;10835;50.148;19.760;2023-11-22T07:49:38;12.05;;;5.57;;
21354;SDS011;10835;50.148;19.760;2023-11-22T07:52:08;24.20;;;9.35;;
21354;SDS011;10835;50.148;19.760;2023-11-22T07:54:40;14.55;;;7.00;;
21354;SDS011;10835;50.148;19.760;2023-11-22T07:57:09;12.93;;;5.15;;
21354;SDS011;10835;50.148;19.760;2023-11-22T07:59:37;9.60;;;5.10;;
21354;SDS011;10835;50.148;19.760;2023-11-22T08:02:08;10.13;;;4.97;;
21354;SDS011;10835;50.148;19.760;2023-11-22T08:04:38;10.77;;;5.35;;
21354;SDS011;10835;50.148;19.760;2023-11-22T08:07:07;13.10;;;5.63;;
21354;SDS011;10835;50.148;19.760;2023-11-22T08:09:38;10.98;;;5.57;;
21354;SDS011;10835;50.148;19.760;2023-11-22T08:12:06;12.98;;;6.93;;
21354;SDS011;10835;50.148;19.760;2023-11-22T08:14:37;14.00;;;5.95;;
21354;SDS011;10835;50.148;19.760;2023-11-22T08:17:13;11.68;;;6.55;;
21354;SDS011;10835;50.148;19.760;2023-11-22T08:19:42;13.02;;;6.72;;
21354;SDS011;10835;50.148;19.760;2023-11-22T08:22:10;10.70;;;6.00;;
21354;SDS011;10835;50.148;19.760;2023-11-22T08:24:39;11.50;;;4.55;;
21354;SDS011;10835;50.148;19.760;2023-11-22T08:27:07;10.85;;;5.10;;
21354;SDS011;10835;50.148;19.760;2023-11-22T08:29:36;5.38;;;3.80;;
21354;SDS011;10835;50.148;19.760;2023-11-22T08:32:06;7.25;;;4.03;;
21354;SDS011;10835;50.148;19.760;2023-11-22T08:34:35;14.68;;;5.30;;
21354;SDS011;10835;50.148;19.760;2023-11-22T08:37:03;5.57;;;3.30;;
21354;SDS011;10835;50.148;19.760;2023-11-22T08:39:32;13.45;;;6.35;;
21354;SDS011;10835;50.148;19.760;2023-11-22T08:42:00;7.90;;;4.35;;
21354;SDS011;10835;50.148;19.760;2023-11-22T08:44:30;7.65;;;3.85;;
21354;SDS011;10835;50.148;19.760;2023-11-22T08:47:00;6.88;;;3.30;;
21354;SDS011;10835;50.148;19.760;2023-11-22T08:49:31;7.05;;;4.13;;
21354;SDS011;10835;50.148;19.760;2023-11-22T08:51:59;6.47;;;3.80;;
21354;SDS011;10835;50.148;19.760;2023-11-22T08:54:29;5.70;;;3.20;;
21354;SDS011;10835;50.148;19.760;2023-11-22T08:57:01;8.18;;;4.28;;
21354;SDS011;10835;50.148;19.760;2023-11-22T08:59:30;4.57;;;3.05;;
21354;SDS011;10835;50.148;19.760;2023-11-22T09:01:59;7.13;;;3.90;;
21354;SDS011;10835;50.148;19.760;2023-11-22T09:04:28;10.90;;;4.82;;
21354;SDS011;10835;50.148;19.760;2023-11-22T09:06:58;8.77;;;4.97;;
21354;SDS011;10835;50.148;19.760;2023-11-22T09:09:27;18.50;;;4.45;;
21354;SDS011;10835;50.148;19.760;2023-11-22T09:11:58;8.05;;;4.50;;
21354;SDS011;10835;50.148;19.760;2023-11-22T09:14:26;7.05;;;3.75;;
21354;SDS011;10835;50.148;19.760;2023-11-22T09:16:55;9.63;;;4.25;;
21354;SDS011;10835;50.148;19.760;2023-11-22T09:19:24;8.52;;;4.20;;
21354;SDS011;10835;50.148;19.760;2023-11-22T09:21:54;9.75;;;3.90;;
21354;SDS011;10835;50.148;19.760;2023-11-22T09:24:23;15.80;;;4.75;;
21354;SDS011;10835;50.148;19.760;2023-11-22T09:26:52;12.95;;;4.53;;
21354;SDS011;10835;50.148;19.760;2023-11-22T09:29:20;6.85;;;3.97;;
21354;SDS011;10835;50.148;19.760;2023-11-22T09:31:52;8.35;;;4.00;;
21354;SDS011;10835;50.148;19.760;2023-11-22T09:34:21;9.23;;;4.65;;
21354;SDS011;10835;50.148;19.760;2023-11-22T09:36:49;12.52;;;4.00;;
21354;SDS011;10835;50.148;19.760;2023-11-22T09:39:19;6.47;;;3.95;;
21354;SDS011;10835;50.148;19.760;2023-11-22T09:41:49;9.27;;;4.32;;
21354;SDS011;10835;50.148;19.760;2023-11-22T09:44:18;7.53;;;4.28;;
21354;SDS011;10835;50.148;19.760;2023-11-22T09:46:48;7.30;;;4.70;;
21354;SDS011;10835;50.148;19.760;2023-11-22T09:49:19;11.43;;;6.82;;
21354;SDS011;10835;50.148;19.760;2023-11-22T09:51:52;10.85;;;5.07;;
21354;SDS011;10835;50.148;19.760;2023-11-22T09:54:26;11.55;;;5.30;;
21354;SDS011;10835;50.148;19.760;2023-11-22T09:56:57;8.80;;;4.72;;
21354;SDS011;10835;50.148;19.760;2023-11-22T09:59:29;12.10;;;5.68;;
21354;SDS011;10835;50.148;19.760;2023-11-22T10:01:59;11.18;;;6.13;;
21354;SDS011;10835;50.148;19.760;2023-11-22T10:04:27;13.15;;;6.32;;
21354;SDS011;10835;50.148;19.760;2023-11-22T10:06:58;6.88;;;3.88;;
21354;SDS011;10835;50.148;19.760;2023-11-22T10:09:27;6.28;;;4.10;;
21354;SDS011;10835;50.148;19.760;2023-11-22T10:12:01;8.70;;;3.65;;
21354;SDS011;10835;50.148;19.760;2023-11-22T10:14:32;9.48;;;3.78;;
21354;SDS011;10835;50.148;19.760;2023-11-22T10:17:01;5.68;;;3.80;;
21354;SDS011;10835;50.148;19.760;2023-11-22T10:19:32;6.97;;;3.72;;
21354;SDS011;10835;50.148;19.760;2023-11-22T10:22:02;6.70;;;3.58;;
21354;SDS011;10835;50.148;19.760;2023-11-22T10:24:35;8.07;;;4.10;;
21354;SDS011;10835;50.148;19.760;2023-11-22T10:27:04;9.65;;;4.70;;
21354;SDS011;10835;50.148;19.760;2023-11-22T10:29:32;8.25;;;4.20;;
21354;SDS011;10835;50.148;19.760;2023-11-22T10:32:03;6.97;;;3.58;;
21354;SDS011;10835;50.148;19.760;2023-11-22T10:34:34;7.35;;;4.03;;
21354;SDS011;10835;50.148;19.760;2023-11-22T10:37:03;6.15;;;3.58;;
21354;SDS011;10835;50.148;19.760;2023-11-22T10:39:37;4.30;;;2.42;;
21354;SDS011;10835;50.148;19.760;2023-11-22T10:42:07;10.23;;;4.68;;
21354;SDS011;10835;50.148;19.760;2023-11-22T10:44:36;8.30;;;3.90;;
21354;SDS011;10835;50.148;19.760;2023-11-22T10:47:06;7.85;;;4.15;;
21354;SDS011;10835;50.148;19.760;2023-11-22T10:49:36;8.50;;;3.92;;
21354;SDS011;10835;50.148;19.760;2023-11-22T10:52:05;8.38;;;4.60;;
21354;SDS011;10835;50.148;19.760;2023-11-22T10:54:35;11.55;;;3.90;;
21354;SDS011;10835;50.148;19.760;2023-11-22T10:57:09;8.75;;;4.38;;
21354;SDS011;10835;50.148;19.760;2023-11-22T10:59:39;8.07;;;4.07;;
21354;SDS011;10835;50.148;19.760;2023-11-22T11:02:11;8.80;;;4.80;;
21354;SDS011;10835;50.148;19.760;2023-11-22T11:04:46;12.18;;;5.40;;
21354;SDS011;10835;50.148;19.760;2023-11-22T11:07:18;8.48;;;4.90;;
21354;SDS011;10835;50.148;19.760;2023-11-22T11:09:51;9.85;;;4.60;;
21354;SDS011;10835;50.148;19.760;2023-11-22T11:12:20;10.32;;;4.55;;
21354;SDS011;10835;50.148;19.760;2023-11-22T11:14:49;10.55;;;6.03;;
21354;SDS011;10835;50.148;19.760;2023-11-22T11:17:19;6.75;;;4.03;;
21354;SDS011;10835;50.148;19.760;2023-11-22T11:19:48;11.82;;;4.68;;
21354;SDS011;10835;50.148;19.760;2023-11-22T11:22:17;9.73;;;3.95;;
21354;SDS011;10835;50.148;19.760;2023-11-22T11:24:47;5.80;;;3.58;;
21354;SDS011;10835;50.148;19.760;2023-11-22T11:27:17;8.73;;;3.63;;
21354;SDS011;10835;50.148;19.760;2023-11-22T11:29:46;7.90;;;4.05;;
21354;SDS011;10835;50.148;19.760;2023-11-22T11:32:15;11.10;;;4.00;;
21354;SDS011;10835;50.148;19.760;2023-11-22T11:34:59;7.55;;;3.63;;
21354;SDS011;10835;50.148;19.760;2023-11-22T11:37:33;5.72;;;3.40;;
21354;SDS011;10835;50.148;19.760;2023-11-22T11:40:01;4.57;;;3.00;;
21354;SDS011;10835;50.148;19.760;2023-11-22T11:42:53;4.90;;;3.33;;
21354;SDS011;10835;50.148;19.760;2023-11-22T11:45:23;9.68;;;4.05;;
21354;SDS011;10835;50.148;19.760;2023-11-22T11:47:51;6.72;;;3.53;;
21354;SDS011;10835;50.148;19.760;2023-11-22T11:50:21;8.75;;;3.55;;
21354;SDS011;10835;50.148;19.760;2023-11-22T11:52:49;6.53;;;3.95;;
21354;SDS011;10835;50.148;19.760;2023-11-22T11:55:19;17.48;;;6.75;;
21354;SDS011;10835;50.148;19.760;2023-11-22T11:57:48;13.98;;;4.18;;
21354;SDS011;10835;50.148;19.760;2023-11-22T12:00:18;5.22;;;3.47;;
21354;SDS011;10835;50.148;19.760;2023-11-22T12:02:48;6.15;;;3.05;;
21354;SDS011;10835;50.148;19.760;2023-11-22T12:05:18;6.38;;;3.08;;
21354;SDS011;10835;50.148;19.760;2023-11-22T12:07:47;6.97;;;3.63;;
21354;SDS011;10835;50.148;19.760;2023-11-22T12:10:16;6.50;;;3.30;;
21354;SDS011;10835;50.148;19.760;2023-11-22T12:12:44;5.65;;;3.08;;
21354;SDS011;10835;50.148;19.760;2023-11-22T12:15:13;4.25;;;2.88;;
21354;SDS011;10835;50.148;19.760;2023-11-22T12:17:43;6.53;;;3.63;;
21354;SDS011;10835;50.148;19.760;2023-11-22T12:20:13;6.68;;;3.60;;
21354;SDS011;10835;50.148;19.760;2023-11-22T12:22:45;7.95;;;3.97;;
21354;SDS011;10835;50.148;19.760;2023-11-22T12:25:15;5.45;;;3.13;;
21354;SDS011;10835;50.148;19.760;2023-11-22T12:27:43;6.05;;;2.75;;
21354;SDS011;10835;50.148;19.760;2023-11-22T12:30:27;7.85;;;3.85;;
21354;SDS011;10835;50.148;19.760;2023-11-22T12:33:02;7.32;;;3.78;;
21354;SDS011;10835;50.148;19.760;2023-11-22T12:35:32;7.25;;;3.42;;
21354;SDS011;10835;50.148;19.760;2023-11-22T12:38:03;5.35;;;3.50;;
21354;SDS011;10835;50.148;19.760;2023-11-22T12:40:33;5.70;;;3.15;;
21354;SDS011;10835;50.148;19.760;2023-11-22T12:43:02;5.03;;;3.28;;
21354;SDS011;10835;50.148;19.760;2023-11-22T12:45:33;6.22;;;3.22;;
21354;SDS011;10835;50.148;19.760;2023-11-22T12:48:23;5.28;;;3.17;;
21354;SDS011;10835;50.148;19.760;2023-11-22T12:50:53;4.70;;;2.95;;
21354;SDS011;10835;50.148;19.760;2023-11-22T12:53:22;6.07;;;3.20;;
21354;SDS011;10835;50.148;19.760;2023-11-22T12:55:52;14.80;;;4.53;;
21354;SDS011;10835;50.148;19.760;2023-11-22T12:58:22;13.50;;;5.32;;
21354;SDS011;10835;50.148;19.760;2023-11-22T13:00:52;7.50;;;4.40;;
21354;SDS011;10835;50.148;19.760;2023-11-22T13:03:27;10.75;;;4.38;;
21354;SDS011;10835;50.148;19.760;2023-11-22T13:05:55;4.97;;;3.60;;
21354;SDS011;10835;50.148;19.760;2023-11-22T13:08:24;7.40;;;4.10;;
21354;SDS011;10835;50.148;19.760;2023-11-22T13:10:56;7.10;;;3.60;;
21354;SDS011;10835;50.148;19.760;2023-11-22T13:13:26;4.88;;;3.00;;
21354;SDS011;10835;50.148;19.760;2023-11-22T13:15:57;4.47;;;3.00;;
21354;SDS011;10835;50.148;19.760;2023-11-22T13:18:28;9.10;;;3.83;;
21354;SDS011;10835;50.148;19.760;2023-11-22T13:20:56;5.63;;;3.67;;
21354;SDS011;10835;50.148;19.760;2023-11-22T13:23:25;10.82;;;4.00;;
21354;SDS011;10835;50.148;19.760;2023-11-22T13:25:53;8.57;;;3.22;;
21354;SDS011;10835;50.148;19.760;2023-11-22T13:28:22;5.38;;;3.45;;
21354;SDS011;10835;50.148;19.760;2023-11-22T13:30:52;5.13;;;3.00;;
21354;SDS011;10835;50.148;19.760;2023-11-22T13:33:20;6.50;;;3.17;;
21354;SDS011;10835;50.148;19.760;2023-11-22T13:35:50;6.20;;;3.55;;
21354;SDS011;10835;50.148;19.760;2023-11-22T13:38:19;6.57;;;3.65;;
21354;SDS011;10835;50.148;19.760;2023-11-22T13:40:48;4.72;;;3.30;;
21354;SDS011;10835;50.148;19.760;2023-11-22T13:43:16;8.63;;;2.70;;
21354;SDS011;10835;50.148;19.760;2023-11-22T13:45:46;4.55;;;2.78;;
21354;SDS011;10835;50.148;19.760;2023-11-22T13:48:14;5.55;;;3.22;;
21354;SDS011;10835;50.148;19.760;2023-11-22T13:50:43;5.38;;;3.50;;
21354;SDS011;10835;50.148;19.760;2023-11-22T13:53:13;3.85;;;2.65;;
21354;SDS011;10835;50.148;19.760;2023-11-22T13:55:44;6.90;;;3.17;;
21354;SDS011;10835;50.148;19.760;2023-11-22T13:58:12;5.82;;;2.85;;
21354;SDS011;10835;50.148;19.760;2023-11-22T14:00:41;4.78;;;2.78;;
21354;SDS011;10835;50.148;19.760;2023-11-22T14:03:09;4.28;;;2.55;;
21354;SDS011;10835;50.148;19.760;2023-11-22T14:05:38;5.15;;;3.00;;
21354;SDS011;10835;50.148;19.760;2023-11-22T14:08:07;4.57;;;2.47;;
21354;SDS011;10835;50.148;19.760;2023-11-22T14:10:37;5.20;;;2.63;;
21354;SDS011;10835;50.148;19.760;2023-11-22T14:13:05;5.97;;;3.42;;
21354;SDS011;10835;50.148;19.760;2023-11-22T14:15:35;4.80;;;2.92;;
21354;SDS011;10835;50.148;19.760;2023-11-22T14:18:04;9.98;;;2.97;;
21354;SDS011;10835;50.148;19.760;2023-11-22T14:20:33;6.50;;;3.35;;
21354;SDS011;10835;50.148;19.760;2023-11-22T14:23:02;4.25;;;2.35;;
21354;SDS011;10835;50.148;19.760;2023-11-22T14:25:31;13.68;;;6.80;;
21354;SDS011;10835;50.148;19.760;2023-11-22T14:28:00;23.45;;;9.82;;
21354;SDS011;10835;50.148;19.760;2023-11-22T14:30:30;8.82;;;4.40;;
21354;SDS011;10835;50.148;19.760;2023-11-22T14:33:02;6.63;;;3.25;;
21354;SDS011;10835;50.148;19.760;2023-11-22T14:35:35;8.60;;;4.40;;
21354;SDS011;10835;50.148;19.760;2023-11-22T14:38:04;8.98;;;4.15;;
21354;SDS011;10835;50.148;19.760;2023-11-22T14:40:33;6.43;;;4.15;;
21354;SDS011;10835;50.148;19.760;2023-11-22T14:43:06;9.60;;;5.30;;